Time;durP1;ratioP1;P1;durP2;ratioP2;P2;SDS_P1;SDS_P2;PMS_P1;PMS_P2;Temp;Humidity;BMP_temperature;BMP_pressure;BME280_temperature;BME280_humidity;BME280_pressure;Samples;Min_cycle;Max_cycle;Signal;HPM_P1;HPM_P2
2020/12/22 00:01:53;;;;;;;12.43;7.97;;;17.60;46.50;;;;;;5027050;28;20026;-72
2020/12/22 00:04:19;;;;;;;10.55;7.80;;;17.70;48.60;;;;;;5026793;28;20029;-72
2020/12/22 00:06:46;;;;;;;12.82;8.02;;;17.70;48.20;;;;;;5016472;28;20033;-73
2020/12/22 00:09:12;;;;;;;12.55;8.48;;;17.60;47.70;;;;;;5033987;28;20040;-73
2020/12/22 00:11:38;;;;;;;13.00;7.90;;;17.70;50.90;;;;;;5028006;28;20117;-72
2020/12/22 00:14:05;;;;;;;19.25;9.70;;;17.70;50.20;;;;;;5028031;28;20030;-73
2020/12/22 00:16:36;;;;;;;9.68;6.95;;;17.60;50.10;;;;;;5032477;28;20033;-72
2020/12/22 00:19:03;;;;;;;9.13;5.82;;;17.50;50.50;;;;;;5023024;28;20731;-73
2020/12/22 00:21:37;;;;;;;10.10;6.20;;;17.40;50.40;;;;;;5021636;28;20040;-72
2020/12/22 00:24:04;;;;;;;10.02;7.47;;;17.30;50.50;;;;;;5033149;28;20551;-72
2020/12/22 00:26:30;;;;;;;10.82;6.95;;;17.20;51.00;;;;;;5028237;28;20060;-73
2020/12/22 00:28:57;;;;;;;12.50;7.60;;;17.00;51.00;;;;;;5034174;28;20192;-72
2020/12/22 00:31:23;;;;;;;10.70;7.07;;;16.90;50.60;;;;;;5030102;28;20092;-72
2020/12/22 00:33:50;;;;;;;9.98;7.28;;;16.60;50.60;;;;;;5032516;28;20117;-75
2020/12/22 00:36:16;;;;;;;13.27;7.63;;;16.50;51.70;;;;;;5035197;28;20424;-72
2020/12/22 00:38:46;;;;;;;14.95;7.30;;;16.40;51.80;;;;;;5021844;28;20033;-72
2020/12/22 00:41:13;;;;;;;8.98;6.32;;;16.20;52.10;;;;;;5030355;28;20017;-72
2020/12/22 00:43:41;;;;;;;13.20;7.15;;;16.00;51.50;;;;;;5027794;28;20033;-73
2020/12/22 00:46:08;;;;;;;9.30;5.00;;;15.80;51.40;;;;;;5029121;28;20033;-72
2020/12/22 00:48:34;;;;;;;8.07;5.47;;;15.50;52.00;;;;;;5033417;28;20101;-72
2020/12/22 00:51:01;;;;;;;11.57;6.57;;;15.00;52.50;;;;;;5028481;28;20052;-73
2020/12/22 00:53:27;;;;;;;13.90;8.30;;;15.00;53.20;;;;;;5024007;28;20029;-73
2020/12/22 00:55:54;;;;;;;10.77;7.00;;;14.90;52.90;;;;;;5026518;28;20119;-73
2020/12/22 00:58:20;;;;;;;16.13;7.57;;;14.90;53.10;;;;;;5030559;28;20014;-73
2020/12/22 01:00:46;;;;;;;11.95;7.47;;;14.80;53.20;;;;;;5025537;28;20092;-73
2020/12/22 01:03:13;;;;;;;7.22;6.10;;;14.80;53.60;;;;;;5023436;28;20037;-73
2020/12/22 01:05:39;;;;;;;11.50;7.70;;;14.70;53.20;;;;;;5022976;28;20021;-72
2020/12/22 01:08:06;;;;;;;9.95;6.55;;;14.60;53.30;;;;;;5025637;28;20072;-73
2020/12/22 01:10:32;;;;;;;11.52;6.10;;;14.40;53.30;;;;;;5026823;28;20025;-72
2020/12/22 01:12:59;;;;;;;9.18;5.75;;;14.20;54.70;;;;;;5024950;28;20112;-72
2020/12/22 01:15:25;;;;;;;13.40;6.55;;;14.10;54.60;;;;;;5028149;28;20454;-73
2020/12/22 01:17:51;;;;;;;9.35;5.10;;;14.10;55.60;;;;;;5025144;28;20078;-73
2020/12/22 01:20:18;;;;;;;13.93;4.57;;;14.10;55.70;;;;;;5025695;28;20443;-72
2020/12/22 01:22:46;;;;;;;10.93;5.38;;;14.00;56.00;;;;;;5028574;28;20029;-71
2020/12/22 01:25:12;;;;;;;7.47;5.90;;;14.10;56.10;;;;;;5022208;28;20102;-72
2020/12/22 01:27:38;;;;;;;6.55;4.55;;;13.90;57.30;;;;;;5025291;28;20033;-72
2020/12/22 01:30:05;;;;;;;8.95;4.70;;;14.00;57.20;;;;;;5024804;28;20022;-71
2020/12/22 01:32:31;;;;;;;11.82;4.78;;;14.00;56.20;;;;;;5025934;28;20041;-71
2020/12/22 01:34:58;;;;;;;6.30;3.97;;;14.10;56.60;;;;;;5024877;28;20037;-71
2020/12/22 01:37:24;;;;;;;11.52;3.55;;;14.00;57.90;;;;;;5021505;28;20030;-72
2020/12/22 01:39:50;;;;;;;7.75;3.22;;;13.90;57.70;;;;;;5030592;28;20463;-72
2020/12/22 01:42:17;;;;;;;7.75;3.38;;;14.00;60.80;;;;;;5031920;28;20544;-75
2020/12/22 01:44:43;;;;;;;4.13;2.45;;;14.10;59.30;;;;;;5027707;28;20029;-72
2020/12/22 01:47:10;;;;;;;8.10;2.08;;;14.10;58.70;;;;;;5028503;28;20041;-73
2020/12/22 01:49:36;;;;;;;3.65;1.80;;;14.10;60.90;;;;;;5028709;28;20053;-72
2020/12/22 01:52:03;;;;;;;3.85;1.60;;;14.20;60.40;;;;;;5026510;28;20417;-72
2020/12/22 01:54:31;;;;;;;5.85;2.00;;;14.10;62.90;;;;;;5029648;28;20359;-74
2020/12/22 01:56:58;;;;;;;4.05;1.67;;;14.20;61.70;;;;;;5027124;28;20396;-74
2020/12/22 01:59:24;;;;;;;4.32;2.13;;;14.30;61.70;;;;;;5031071;28;20465;-72
2020/12/22 02:01:52;;;;;;;4.80;1.58;;;14.30;62.50;;;;;;5028382;28;20026;-74
2020/12/22 02:04:20;;;;;;;3.72;1.48;;;14.30;62.40;;;;;;5033082;28;20454;-72
2020/12/22 02:06:47;;;;;;;5.57;1.70;;;14.40;62.80;;;;;;5033575;28;20104;-72
2020/12/22 02:09:14;;;;;;;3.83;1.70;;;14.60;63.70;;;;;;5032686;28;20056;-73
2020/12/22 02:11:41;;;;;;;4.70;1.98;;;14.70;62.40;;;;;;5031356;28;20104;-73
2020/12/22 02:14:10;;;;;;;5.22;1.85;;;14.80;63.20;;;;;;5031059;28;20038;-72
2020/12/22 02:16:37;;;;;;;3.67;1.90;;;14.70;61.70;;;;;;5033384;28;20513;-72
2020/12/22 02:19:04;;;;;;;2.13;1.35;;;14.80;61.90;;;;;;5032328;28;20113;-72
2020/12/22 02:21:30;;;;;;;3.28;1.40;;;14.80;62.10;;;;;;5029643;28;20025;-72
2020/12/22 02:23:57;;;;;;;4.35;1.63;;;14.90;62.10;;;;;;5032322;28;20021;-71
2020/12/22 02:26:24;;;;;;;5.30;1.88;;;14.80;63.60;;;;;;5027581;28;20017;-72
2020/12/22 02:28:55;;;;;;;2.25;1.50;;;14.90;61.50;;;;;;5028721;28;20451;-72
2020/12/22 02:31:24;;;;;;;4.13;2.00;;;14.80;62.70;;;;;;5025976;28;20057;-71
2020/12/22 02:33:51;;;;;;;5.15;1.63;;;15.00;62.50;;;;;;5030672;28;20391;-72
2020/12/22 02:36:18;;;;;;;4.57;1.48;;;14.90;62.90;;;;;;5029122;28;20033;-72
2020/12/22 02:38:44;;;;;;;4.45;1.52;;;15.00;63.40;;;;;;5037447;28;20045;-73
2020/12/22 02:41:11;;;;;;;8.13;1.40;;;14.80;63.60;;;;;;5035918;28;20026;-72
2020/12/22 02:43:38;;;;;;;5.32;1.67;;;14.90;63.00;;;;;;5037949;28;20085;-72
2020/12/22 02:46:04;;;;;;;4.32;2.10;;;15.00;63.10;;;;;;5038232;28;20091;-72
2020/12/22 02:48:31;;;;;;;3.55;1.90;;;15.00;63.00;;;;;;5038761;28;20017;-77
2020/12/22 02:50:57;;;;;;;6.88;1.58;;;14.90;62.80;;;;;;5039024;28;20018;-73
2020/12/22 02:53:24;;;;;;;3.80;1.38;;;15.10;62.70;;;;;;5037970;28;20029;-73
2020/12/22 02:55:50;;;;;;;4.32;1.77;;;15.10;62.20;;;;;;5036791;28;20036;-73
2020/12/22 02:58:17;;;;;;;2.63;1.30;;;15.00;62.50;;;;;;5033692;28;20025;-73
2020/12/22 03:00:43;;;;;;;5.20;1.88;;;14.80;63.00;;;;;;5034029;28;20097;-73
2020/12/22 03:03:10;;;;;;;10.50;2.50;;;14.90;62.80;;;;;;5034121;28;20025;-72
2020/12/22 03:05:36;;;;;;;3.25;1.20;;;14.80;63.10;;;;;;5029330;28;20083;-72
2020/12/22 03:08:04;;;;;;;4.82;1.60;;;14.80;62.30;;;;;;5031684;28;20029;-72
2020/12/22 03:10:30;;;;;;;4.40;1.75;;;14.70;63.30;;;;;;5025860;28;20022;-72
2020/12/22 03:12:57;;;;;;;3.00;1.52;;;14.70;62.60;;;;;;5026301;28;20067;-74
2020/12/22 03:15:23;;;;;;;3.00;1.40;;;14.70;62.60;;;;;;5029226;28;20124;-72
2020/12/22 03:17:50;;;;;;;2.83;1.30;;;14.70;62.40;;;;;;5032292;28;20359;-73
2020/12/22 03:20:17;;;;;;;6.72;1.33;;;14.60;63.10;;;;;;5031712;28;20036;-74
2020/12/22 03:22:43;;;;;;;6.05;1.42;;;14.50;63.00;;;;;;5034543;28;20359;-72
2020/12/22 03:25:12;;;;;;;5.13;1.38;;;14.60;62.50;;;;;;5019563;28;20119;-74
2020/12/22 03:27:41;;;;;;;6.68;1.52;;;14.50;63.00;;;;;;5038257;28;20031;-74
2020/12/22 03:30:11;;;;;;;5.20;1.55;;;14.70;61.90;;;;;;5036757;28;20030;-74
2020/12/22 03:32:38;;;;;;;7.65;1.95;;;14.90;61.40;;;;;;5038586;28;20036;-76
2020/12/22 03:35:06;;;;;;;8.38;2.45;;;15.00;61.00;;;;;;5037366;28;20037;-74
2020/12/22 03:37:33;;;;;;;4.40;1.70;;;14.90;61.10;;;;;;5035818;28;20413;-74
2020/12/22 03:40:04;;;;;;;5.18;1.70;;;15.00;61.00;;;;;;5035746;28;20396;-75
2020/12/22 03:42:31;;;;;;;5.72;1.73;;;15.00;60.70;;;;;;5033287;28;20029;-72
2020/12/22 03:44:57;;;;;;;6.72;2.22;;;15.00;60.60;;;;;;5032254;28;20033;-71
2020/12/22 03:47:24;;;;;;;6.20;1.80;;;15.10;60.70;;;;;;5032920;28;20037;-72
2020/12/22 03:49:50;;;;;;;9.95;2.28;;;15.00;60.60;;;;;;5030165;28;20580;-72
2020/12/22 03:52:17;;;;;;;9.82;2.33;;;15.00;60.70;;;;;;5030396;28;20064;-72
2020/12/22 03:54:43;;;;;;;12.73;2.88;;;15.10;60.40;;;;;;5029173;28;20029;-74
2020/12/22 03:57:10;;;;;;;4.28;1.92;;;14.80;60.90;;;;;;5024489;28;20017;-75
2020/12/22 03:59:36;;;;;;;8.48;1.95;;;14.40;62.20;;;;;;5033982;28;20030;-73
2020/12/22 04:02:04;;;;;;;5.88;2.85;;;14.40;62.00;;;;;;5036831;28;20112;-73
2020/12/22 04:04:31;;;;;;;6.00;2.80;;;14.20;62.90;;;;;;5036541;28;20017;-72
2020/12/22 04:06:58;;;;;;;5.20;1.90;;;14.30;62.20;;;;;;5035725;28;20025;-72
2020/12/22 04:09:24;;;;;;;3.85;1.65;;;14.10;62.30;;;;;;5030644;28;20022;-72
2020/12/22 04:11:51;;;;;;;9.13;2.03;;;14.00;62.10;;;;;;5035132;28;20022;-72
2020/12/22 04:14:19;;;;;;;7.22;2.30;;;14.00;62.00;;;;;;5034574;28;20033;-72
2020/12/22 04:16:46;;;;;;;5.88;2.22;;;14.00;61.90;;;;;;5035916;28;20083;-72
2020/12/22 04:19:13;;;;;;;6.80;3.70;;;13.90;61.90;;;;;;5034442;28;20044;-73
2020/12/22 04:21:39;;;;;;;5.63;2.95;;;13.80;62.30;;;;;;5030551;28;20166;-72
2020/12/22 04:24:06;;;;;;;5.80;2.50;;;13.70;62.30;;;;;;5030802;28;20029;-72
2020/12/22 04:26:33;;;;;;;9.80;3.00;;;13.70;62.30;;;;;;5028781;28;20034;-72
2020/12/22 04:29:00;;;;;;;4.88;2.65;;;13.40;63.40;;;;;;5028397;28;20117;-71
2020/12/22 04:31:27;;;;;;;4.03;2.83;;;13.30;63.00;;;;;;5015881;28;20079;-72
2020/12/22 04:33:55;;;;;;;5.78;3.50;;;13.30;62.70;;;;;;5029454;28;20029;-73
2020/12/22 04:36:23;;;;;;;12.77;3.67;;;13.20;62.60;;;;;;5032185;28;20033;-71
2020/12/22 04:38:51;;;;;;;10.90;3.53;;;13.10;61.70;;;;;;5027709;28;20017;-72
2020/12/22 04:41:19;;;;;;;7.05;3.22;;;13.10;61.50;;;;;;5033569;28;20463;-71
2020/12/22 04:43:47;;;;;;;10.27;4.80;;;12.90;62.80;;;;;;5031546;28;20083;-73
2020/12/22 04:46:21;;;;;;;6.88;3.88;;;12.90;62.90;;;;;;5028896;28;20068;-72
2020/12/22 04:48:57;;;;;;;7.28;3.90;;;12.60;64.40;;;;;;5015710;28;20046;-73
2020/12/22 04:51:24;;;;;;;7.35;4.43;;;12.60;63.60;;;;;;5027926;28;20451;-71
2020/12/22 04:53:51;;;;;;;6.82;4.55;;;12.50;63.40;;;;;;5032708;28;20079;-71
2020/12/22 04:56:20;;;;;;;8.35;4.18;;;12.50;63.50;;;;;;5026650;28;20030;-71
2020/12/22 04:58:47;;;;;;;6.22;3.33;;;12.40;63.40;;;;;;5033631;28;20021;-72
2020/12/22 05:01:16;;;;;;;5.20;3.55;;;12.40;61.90;;;;;;5033953;28;20029;-72
2020/12/22 05:03:43;;;;;;;9.98;3.60;;;12.40;62.00;;;;;;5033442;28;20030;-73
2020/12/22 05:06:09;;;;;;;6.90;3.55;;;12.30;63.30;;;;;;5035259;28;20115;-72
2020/12/22 05:08:36;;;;;;;6.03;3.63;;;12.20;63.00;;;;;;5033780;28;20083;-72
2020/12/22 05:11:02;;;;;;;4.43;2.97;;;12.10;63.10;;;;;;5013535;28;20101;-72
2020/12/22 05:13:29;;;;;;;7.90;3.13;;;12.00;63.50;;;;;;5021017;28;20116;-72
2020/12/22 05:15:55;;;;;;;5.13;3.03;;;11.90;63.00;;;;;;5029303;28;20026;-72
2020/12/22 05:18:24;;;;;;;9.70;3.70;;;11.90;63.10;;;;;;5034787;28;20037;-72
2020/12/22 05:20:51;;;;;;;12.18;3.45;;;11.80;62.30;;;;;;5034178;28;20109;-71
2020/12/22 05:23:20;;;;;;;9.15;3.10;;;11.90;63.20;;;;;;5033205;28;20053;-72
2020/12/22 05:25:49;;;;;;;7.88;3.17;;;11.80;62.70;;;;;;5029077;28;20061;-72
2020/12/22 05:28:17;;;;;;;12.23;3.78;;;11.80;63.30;;;;;;5034422;28;20029;-71
2020/12/22 05:30:44;;;;;;;10.25;4.35;;;11.80;63.30;;;;;;5027980;28;20471;-71
2020/12/22 05:33:12;;;;;;;8.55;3.47;;;11.80;64.90;;;;;;5030729;28;20469;-72
2020/12/22 05:35:46;;;;;;;9.65;2.90;;;11.90;63.80;;;;;;5023874;28;20018;-72
2020/12/22 05:38:18;;;;;;;9.20;2.63;;;11.80;64.30;;;;;;5026099;28;20024;-71
2020/12/22 05:40:45;;;;;;;5.72;3.03;;;11.80;64.30;;;;;;5026196;28;20026;-71
2020/12/22 05:43:12;;;;;;;7.18;3.45;;;11.80;64.80;;;;;;5031231;28;20060;-72
2020/12/22 05:45:45;;;;;;;7.57;3.15;;;11.60;63.90;;;;;;5029771;28;20511;-72
2020/12/22 05:48:15;;;;;;;11.70;2.90;;;11.50;65.30;;;;;;5025522;28;20111;-71
2020/12/22 05:50:51;;;;;;;7.28;3.00;;;11.50;65.00;;;;;;5032585;28;20605;-71
2020/12/22 05:53:24;;;;;;;4.05;2.22;;;11.50;65.70;;;;;;5028238;28;20033;-71
2020/12/22 05:55:50;;;;;;;7.63;3.13;;;11.40;66.20;;;;;;5029812;28;20025;-72
2020/12/22 05:58:18;;;;;;;3.25;2.03;;;11.30;66.50;;;;;;5029555;28;20032;-71
2020/12/22 06:00:45;;;;;;;9.57;4.05;;;11.30;65.70;;;;;;5031988;28;20030;-71
2020/12/22 06:03:13;;;;;;;6.88;2.90;;;11.30;65.20;;;;;;5029865;28;20036;-72
2020/12/22 06:05:45;;;;;;;7.65;2.63;;;11.30;65.90;;;;;;5023298;28;20025;-71
2020/12/22 06:08:13;;;;;;;6.00;2.70;;;11.30;66.30;;;;;;5031885;28;20033;-71
2020/12/22 06:10:41;;;;;;;8.75;2.60;;;11.30;65.10;;;;;;5028072;28;20022;-72
2020/12/22 06:13:09;;;;;;;7.90;2.90;;;11.30;65.70;;;;;;5030548;28;20101;-72
2020/12/22 06:15:36;;;;;;;5.72;2.28;;;11.20;66.10;;;;;;5032018;28;20091;-72
2020/12/22 06:18:04;;;;;;;9.23;3.30;;;11.10;65.90;;;;;;5036404;28;20028;-72
2020/12/22 06:20:31;;;;;;;8.50;2.97;;;11.20;64.50;;;;;;5032685;28;20049;-71
2020/12/22 06:23:01;;;;;;;8.10;3.75;;;11.30;64.60;;;;;;5032764;28;20108;-71
2020/12/22 06:25:28;;;;;;;7.80;3.42;;;11.20;65.40;;;;;;5031687;28;20083;-72
2020/12/22 06:27:54;;;;;;;13.77;3.85;;;11.20;64.40;;;;;;5037006;28;20026;-72
2020/12/22 06:30:33;;;;;;;8.93;3.78;;;11.10;65.50;;;;;;5033682;28;20029;-71
2020/12/22 06:33:35;;;;;;;6.78;2.75;;;11.00;64.60;;;;;;5034480;28;20037;-72
2020/12/22 06:36:06;;;;;;;3.15;2.20;;;11.10;65.30;;;;;;4942933;28;20046;-72
2020/12/22 06:38:55;;;;;;;3.30;1.98;;;11.10;65.40;;;;;;5016278;28;20060;-72
2020/12/22 06:41:34;;;;;;;13.18;3.85;;;10.90;66.40;;;;;;5032481;28;20103;-72
2020/12/22 06:44:22;;;;;;;8.68;2.97;;;11.00;65.20;;;;;;5035483;28;20034;-72
2020/12/22 06:46:53;;;;;;;7.05;3.00;;;11.10;65.70;;;;;;5037459;28;20040;-72
2020/12/22 06:49:46;;;;;;;4.15;2.50;;;11.10;65.40;;;;;;5026757;28;20021;-71
2020/12/22 06:52:38;;;;;;;7.60;2.47;;;11.10;65.70;;;;;;5010730;28;20030;-71
2020/12/22 06:55:10;;;;;;;6.53;3.35;;;11.10;65.60;;;;;;5012360;28;20036;-72
2020/12/22 06:57:44;;;;;;;8.48;3.55;;;11.10;65.80;;;;;;5015723;28;20029;-72
2020/12/22 07:00:26;;;;;;;12.48;3.60;;;11.00;66.80;;;;;;5032361;28;20036;-72
2020/12/22 07:03:16;;;;;;;5.43;3.33;;;11.00;66.40;;;;;;5033735;28;20120;-72
2020/12/22 07:05:48;;;;;;;10.45;3.92;;;11.00;66.90;;;;;;5026366;28;20057;-72
2020/12/22 07:08:16;;;;;;;5.72;2.90;;;11.00;68.00;;;;;;5032921;28;20387;-72
2020/12/22 07:10:48;;;;;;;9.57;3.20;;;11.00;68.10;;;;;;5034030;28;20033;-72
2020/12/22 07:13:16;;;;;;;12.65;3.42;;;11.20;66.60;;;;;;4999962;28;20084;-71
2020/12/22 07:15:45;;;;;;;9.07;3.60;;;11.40;66.50;;;;;;5034858;28;20474;-72
2020/12/22 07:18:14;;;;;;;14.35;3.00;;;11.50;66.60;;;;;;5038107;28;20018;-72
2020/12/22 07:20:43;;;;;;;7.97;3.50;;;11.50;66.30;;;;;;5031671;28;20035;-72
2020/12/22 07:23:10;;;;;;;13.50;3.10;;;11.70;66.90;;;;;;5032893;28;20026;-72
2020/12/22 07:25:41;;;;;;;11.27;3.10;;;11.70;66.60;;;;;;5032751;28;20025;-72
2020/12/22 07:28:10;;;;;;;11.25;2.97;;;11.70;66.80;;;;;;5033874;28;20029;-72
2020/12/22 07:30:37;;;;;;;10.65;2.67;;;11.80;67.00;;;;;;5030178;28;20035;-72
2020/12/22 07:33:04;;;;;;;16.30;5.05;;;11.80;67.20;;;;;;5030730;28;20060;-72
2020/12/22 07:35:32;;;;;;;5.88;2.95;;;11.80;66.90;;;;;;5033598;28;20423;-72
2020/12/22 07:38:06;;;;;;;8.10;2.78;;;11.90;67.00;;;;;;5034605;28;20022;-72
2020/12/22 07:40:35;;;;;;;11.73;3.70;;;11.90;66.70;;;;;;5034588;28;20324;-72
2020/12/22 07:43:09;;;;;;;9.77;2.70;;;11.90;66.60;;;;;;5026144;28;20021;-72
2020/12/22 07:45:36;;;;;;;10.85;2.63;;;12.00;66.30;;;;;;5033485;28;20116;-72
2020/12/22 07:48:09;;;;;;;6.80;2.60;;;11.90;66.20;;;;;;5017169;28;20041;-72
2020/12/22 07:50:36;;;;;;;7.13;2.20;;;11.90;66.30;;;;;;5034464;28;20057;-72
2020/12/22 07:53:02;;;;;;;6.20;2.47;;;11.80;66.90;;;;;;5034885;28;20033;-71
2020/12/22 07:55:40;;;;;;;8.57;2.42;;;11.80;67.20;;;;;;5028164;28;20041;-71
2020/12/22 07:58:11;;;;;;;3.75;2.10;;;11.70;67.20;;;;;;5035237;28;20203;-71
2020/12/22 08:00:39;;;;;;;7.25;2.40;;;11.70;67.60;;;;;;5017934;28;20048;-71
2020/12/22 08:03:16;;;;;;;6.75;3.22;;;11.70;67.40;;;;;;5029527;28;20037;-72
2020/12/22 08:05:57;;;;;;;4.03;2.10;;;11.70;67.90;;;;;;5030526;28;20362;-72
2020/12/22 08:08:23;;;;;;;8.32;2.13;;;11.70;67.00;;;;;;5027603;28;20022;-72
2020/12/22 08:10:50;;;;;;;4.20;2.35;;;11.50;68.40;;;;;;5033717;28;20455;-71
2020/12/22 08:13:18;;;;;;;7.07;4.35;;;11.50;66.90;;;;;;5026370;28;20042;-73
2020/12/22 08:15:45;;;;;;;4.53;2.25;;;11.50;66.60;;;;;;5028081;28;20045;-73
2020/12/22 08:18:12;;;;;;;6.07;2.50;;;11.40;67.20;;;;;;5030794;28;20490;-72
2020/12/22 08:20:39;;;;;;;7.43;2.90;;;11.40;66.60;;;;;;5029975;28;20029;-72
2020/12/22 08:23:07;;;;;;;9.27;2.40;;;11.10;69.30;;;;;;5033616;28;20026;-72
2020/12/22 08:25:33;;;;;;;7.45;2.63;;;11.10;68.50;;;;;;5037324;28;20026;-73
2020/12/22 08:28:00;;;;;;;6.32;2.50;;;11.10;67.60;;;;;;5034157;28;20140;-72
2020/12/22 08:30:26;;;;;;;3.58;2.00;;;11.00;68.70;;;;;;5035319;28;20363;-72
2020/12/22 08:32:54;;;;;;;4.88;2.83;;;10.90;68.40;;;;;;5026112;28;20030;-73
2020/12/22 08:35:21;;;;;;;6.63;2.20;;;10.80;68.30;;;;;;5029994;28;20029;-72
2020/12/22 08:37:48;;;;;;;4.13;2.55;;;10.80;67.70;;;;;;5016459;28;20049;-74
2020/12/22 08:40:31;;;;;;;3.80;2.05;;;10.80;68.50;;;;;;5029417;28;20041;-71
2020/12/22 08:43:01;;;;;;;5.30;2.38;;;10.70;67.70;;;;;;5025263;28;20033;-71
2020/12/22 08:45:30;;;;;;;7.53;2.40;;;10.70;67.80;;;;;;5026968;28;20033;-71
2020/12/22 08:47:57;;;;;;;3.92;1.98;;;10.70;67.90;;;;;;5032945;28;20026;-72
2020/12/22 08:50:23;;;;;;;4.10;1.95;;;10.80;67.90;;;;;;5025462;28;20104;-73
2020/12/22 08:52:49;;;;;;;10.88;2.28;;;10.70;67.70;;;;;;5029835;28;20308;-72
2020/12/22 08:55:16;;;;;;;4.60;2.38;;;10.60;68.60;;;;;;5031180;28;20028;-71
2020/12/22 08:57:42;;;;;;;6.80;2.92;;;10.60;68.50;;;;;;5027005;28;20100;-71
2020/12/22 09:00:16;;;;;;;6.72;2.03;;;10.60;68.60;;;;;;5028483;28;20033;-71
2020/12/22 09:02:51;;;;;;;3.63;3.05;;;10.60;69.10;;;;;;5028295;28;20017;-72
2020/12/22 09:05:19;;;;;;;4.45;2.00;;;10.60;69.90;;;;;;5025833;28;20021;-73
2020/12/22 09:07:56;;;;;;;3.67;1.88;;;10.60;69.70;;;;;;5009596;28;20029;-72
2020/12/22 09:10:22;;;;;;;3.53;2.00;;;10.60;70.90;;;;;;5034314;28;20025;-72
2020/12/22 09:12:48;;;;;;;16.48;3.97;;;10.70;70.70;;;;;;5033180;28;20025;-72
2020/12/22 09:15:15;;;;;;;4.60;2.42;;;10.80;70.30;;;;;;5016714;28;20459;-72
2020/12/22 09:17:41;;;;;;;1.92;1.77;;;10.90;72.60;;;;;;5034287;28;20052;-72
2020/12/22 09:20:08;;;;;;;4.65;2.75;;;11.00;71.80;;;;;;5030548;28;20022;-73
2020/12/22 09:22:36;;;;;;;7.25;2.40;;;11.10;72.10;;;;;;5013233;28;20028;-72
2020/12/22 09:25:10;;;;;;;7.05;2.42;;;11.10;73.50;;;;;;5034479;28;20030;-72
2020/12/22 09:27:38;;;;;;;9.95;2.42;;;11.20;75.20;;;;;;5028667;28;20025;-72
2020/12/22 09:30:12;;;;;;;4.47;2.78;;;11.30;74.90;;;;;;5035678;28;20028;-73
2020/12/22 09:32:39;;;;;;;5.63;2.42;;;11.50;76.80;;;;;;5034874;28;20101;-73
2020/12/22 09:35:06;;;;;;;5.13;3.40;;;11.60;77.90;;;;;;5027433;28;20044;-72
2020/12/22 09:37:32;;;;;;;5.60;2.38;;;11.90;76.50;;;;;;5033541;28;20022;-73
2020/12/22 09:39:58;;;;;;;10.52;3.42;;;12.00;75.90;;;;;;5033083;28;20032;-71
2020/12/22 09:42:27;;;;;;;10.15;2.70;;;12.20;74.20;;;;;;5029771;28;20057;-72
2020/12/22 09:44:54;;;;;;;3.85;2.70;;;12.40;73.60;;;;;;5016173;28;20033;-72
2020/12/22 09:47:20;;;;;;;9.68;3.72;;;12.50;74.00;;;;;;5020933;28;20060;-72
2020/12/22 09:49:47;;;;;;;5.47;2.20;;;12.60;73.40;;;;;;5037226;28;20025;-72
2020/12/22 09:52:13;;;;;;;5.45;2.25;;;12.70;73.90;;;;;;5019558;28;20058;-73
2020/12/22 09:54:40;;;;;;;9.07;2.67;;;12.80;73.30;;;;;;5036388;28;20033;-72
2020/12/22 09:57:06;;;;;;;5.53;2.65;;;12.90;72.90;;;;;;5036439;28;20454;-72
2020/12/22 09:59:32;;;;;;;8.43;2.85;;;13.00;73.10;;;;;;5033468;28;20021;-72
2020/12/22 10:01:59;;;;;;;7.88;2.60;;;13.20;71.70;;;;;;5035598;28;20041;-72
2020/12/22 10:04:26;;;;;;;5.53;2.47;;;13.30;71.20;;;;;;5036073;28;20030;-72
2020/12/22 10:06:53;;;;;;;6.15;2.97;;;13.40;71.10;;;;;;5036778;28;20045;-72
2020/12/22 10:09:19;;;;;;;5.90;1.55;;;13.60;71.30;;;;;;5037635;28;20029;-72
2020/12/22 10:11:46;;;;;;;4.15;1.80;;;13.60;71.90;;;;;;5036821;28;20018;-72
2020/12/22 10:14:13;;;;;;;4.80;2.33;;;13.70;71.80;;;;;;5037359;28;20029;-72
2020/12/22 10:16:39;;;;;;;7.80;1.70;;;13.70;71.90;;;;;;5037312;28;20032;-72
2020/12/22 10:19:06;;;;;;;4.75;1.58;;;13.80;71.50;;;;;;5019211;28;20033;-72
2020/12/22 10:21:32;;;;;;;8.82;1.75;;;13.80;72.20;;;;;;5036601;28;20021;-73
2020/12/22 10:24:04;;;;;;;4.55;1.60;;;13.80;72.70;;;;;;5020162;28;20033;-72
2020/12/22 10:26:31;;;;;;;8.25;1.70;;;13.80;72.00;;;;;;5020193;28;20435;-72
2020/12/22 10:28:58;;;;;;;10.48;2.42;;;13.80;71.60;;;;;;5037212;28;20087;-72
2020/12/22 10:31:26;;;;;;;7.88;1.60;;;14.00;70.90;;;;;;5032933;28;20091;-72
2020/12/22 10:33:56;;;;;;;12.88;3.05;;;13.80;70.70;;;;;;5018671;28;20621;-72
2020/12/22 10:36:22;;;;;;;10.48;1.85;;;13.80;70.50;;;;;;4999304;28;20033;-73
2020/12/22 10:38:54;;;;;;;10.20;2.70;;;13.60;70.80;;;;;;5026173;28;20029;-73
2020/12/22 10:41:21;;;;;;;9.02;2.63;;;13.70;70.10;;;;;;5017654;28;20021;-71
2020/12/22 10:43:48;;;;;;;8.40;2.22;;;13.80;69.40;;;;;;5018867;28;20022;-72
2020/12/22 10:46:15;;;;;;;11.43;2.72;;;13.90;68.50;;;;;;5036849;28;20487;-72
2020/12/22 10:48:43;;;;;;;12.18;2.00;;;13.80;68.80;;;;;;5034769;28;20406;-72
2020/12/22 10:51:10;;;;;;;9.25;2.17;;;13.80;68.80;;;;;;5034568;28;20481;-72
2020/12/22 10:53:36;;;;;;;13.27;2.67;;;13.80;68.10;;;;;;5030898;28;20033;-73
2020/12/22 10:56:03;;;;;;;12.82;2.55;;;13.80;67.90;;;;;;5033944;28;20510;-72
2020/12/22 10:58:30;;;;;;;9.63;2.22;;;13.80;67.90;;;;;;5035752;28;20079;-72
2020/12/22 11:00:56;;;;;;;9.35;2.97;;;13.50;68.10;;;;;;5036151;28;20052;-73
2020/12/22 11:03:23;;;;;;;9.20;2.28;;;13.50;68.30;;;;;;5034919;28;20025;-73
2020/12/22 11:08:39;;;;;;;20.08;3.80;;;13.30;68.20;;;;;;5036348;28;20032;-72
2020/12/22 11:11:06;;;;;;;10.50;2.17;;;13.30;67.80;;;;;;5035909;28;20088;-72
2020/12/22 11:13:32;;;;;;;10.20;2.17;;;13.30;68.00;;;;;;5037223;28;20029;-72
2020/12/22 11:15:59;;;;;;;8.95;2.72;;;13.20;68.10;;;;;;5035453;28;20119;-71
2020/12/22 11:18:26;;;;;;;10.57;2.67;;;13.30;66.90;;;;;;5035766;28;20458;-71
2020/12/22 11:20:52;;;;;;;5.93;2.10;;;13.10;67.30;;;;;;5035859;28;20075;-71
2020/12/22 11:23:18;;;;;;;16.05;2.70;;;12.80;68.50;;;;;;5017638;28;20099;-72
2020/12/22 11:25:45;;;;;;;13.30;2.85;;;12.60;69.60;;;;;;5026745;28;20355;-71
2020/12/22 11:28:11;;;;;;;15.88;2.60;;;12.50;70.20;;;;;;5034466;28;20099;-71
2020/12/22 11:30:38;;;;;;;7.22;2.20;;;12.80;69.50;;;;;;5035747;28;20032;-71
2020/12/22 11:33:04;;;;;;;12.60;2.47;;;13.00;67.80;;;;;;5033943;28;20473;-71
2020/12/22 11:35:32;;;;;;;11.52;4.28;;;12.90;68.40;;;;;;5034605;28;20041;-72
2020/12/22 11:37:58;;;;;;;13.68;2.63;;;12.80;68.40;;;;;;5034929;28;20013;-71
2020/12/22 11:40:25;;;;;;;10.40;2.20;;;12.70;69.20;;;;;;5035576;28;20080;-72
2020/12/22 11:42:52;;;;;;;10.88;2.95;;;12.80;68.40;;;;;;5018004;28;20032;-71
2020/12/22 11:45:18;;;;;;;13.77;3.03;;;12.60;69.00;;;;;;5035923;28;20036;-73
2020/12/22 11:47:45;;;;;;;24.95;5.45;;;12.50;69.50;;;;;;5034770;28;20075;-72
2020/12/22 11:50:11;;;;;;;15.20;4.72;;;12.40;69.90;;;;;;5034017;28;20037;-72
2020/12/22 11:52:37;;;;;;;14.75;4.25;;;12.20;70.30;;;;;;5017435;28;20033;-72
2020/12/22 11:55:04;;;;;;;14.23;3.17;;;12.20;71.20;;;;;;5036326;28;20060;-73
2020/12/22 11:57:31;;;;;;;13.35;2.55;;;12.20;70.00;;;;;;5034339;28;20036;-72
2020/12/22 11:59:57;;;;;;;19.38;4.05;;;12.30;69.70;;;;;;5035620;28;20026;-72
2020/12/22 12:02:24;;;;;;;16.60;4.00;;;12.20;70.00;;;;;;5036075;28;20075;-71
2020/12/22 12:04:50;;;;;;;16.85;5.25;;;12.10;70.80;;;;;;5035023;28;20025;-72
2020/12/22 12:07:16;;;;;;;19.08;3.70;;;12.20;70.00;;;;;;5034950;28;20037;-72
2020/12/22 12:09:43;;;;;;;11.52;3.03;;;12.10;70.70;;;;;;5033775;28;20355;-72
2020/12/22 12:12:11;;;;;;;18.63;3.25;;;12.00;70.60;;;;;;5034785;28;20037;-72
2020/12/22 12:14:37;;;;;;;23.38;3.67;;;12.00;70.70;;;;;;5034842;28;20354;-72
2020/12/22 12:17:03;;;;;;;15.50;3.70;;;11.80;71.60;;;;;;5034985;28;20026;-72
2020/12/22 12:19:32;;;;;;;18.00;3.75;;;11.90;70.60;;;;;;5033579;28;20478;-71
2020/12/22 12:21:59;;;;;;;15.07;3.20;;;11.90;70.20;;;;;;5035013;28;20499;-72
2020/12/22 12:24:26;;;;;;;15.40;3.30;;;11.80;70.40;;;;;;5033901;28;20031;-71
2020/12/22 12:26:52;;;;;;;15.48;3.45;;;11.80;69.80;;;;;;5034392;28;20048;-72
2020/12/22 12:29:19;;;;;;;18.08;3.80;;;11.80;70.00;;;;;;5034951;28;20064;-71
2020/12/22 12:31:49;;;;;;;18.55;4.03;;;11.60;71.00;;;;;;5034652;28;20033;-72
2020/12/22 12:34:15;;;;;;;19.42;4.82;;;11.70;70.80;;;;;;5033830;28;20040;-71
2020/12/22 12:36:42;;;;;;;11.23;3.13;;;11.60;71.00;;;;;;5033085;28;20053;-71
2020/12/22 12:39:10;;;;;;;21.58;4.80;;;11.60;71.10;;;;;;5034636;28;20066;-71
2020/12/22 12:41:37;;;;;;;14.18;3.90;;;11.70;69.60;;;;;;5031023;28;20022;-71
2020/12/22 12:44:04;;;;;;;21.45;3.72;;;11.70;70.20;;;;;;5033101;28;20053;-72
2020/12/22 12:46:31;;;;;;;17.08;4.32;;;11.70;70.00;;;;;;5034372;28;20030;-72
2020/12/22 12:48:57;;;;;;;19.50;4.25;;;11.70;69.20;;;;;;5033358;28;20022;-72
2020/12/22 12:51:23;;;;;;;18.65;3.22;;;11.60;68.80;;;;;;5031521;28;20476;-75